METAR Data
IDs: Format: Raw Decoded Include TAF

Data at: 1627 UTC 30 Oct 2020

KMKT 301556Z AUTO 14008KT 10SM OVC050 02/M02 A3029 RMK AO2 SLP270 T00221022 FZRANO